Time;durP1;ratioP1;P1;durP2;ratioP2;P2;SDS_P1;SDS_P2;PMS_P1;PMS_P2;Temp;Humidity;BMP_temperature;BMP_pressure;BME280_temperature;BME280_humidity;BME280_pressure;Samples;Min_cycle;Max_cycle;Signal;HPM_P1;HPM_P2
2022/05/07 00:00:39;;;;;;;2.47;0.40;;;13.40;81.80;;;;;;5037492;28;20029;-59
2022/05/07 00:03:06;;;;;;;3.35;0.70;;;13.30;81.80;;;;;;5033460;28;20037;-59
2022/05/07 00:05:31;;;;;;;0.52;0.45;;;13.30;81.40;;;;;;5037725;28;20021;-60
2022/05/07 00:07:58;;;;;;;1.00;0.70;;;13.30;81.30;;;;;;5041534;28;20044;-59
2022/05/07 00:10:24;;;;;;;0.90;0.52;;;13.30;80.40;;;;;;5034244;28;20374;-59
2022/05/07 00:12:50;;;;;;;2.00;0.52;;;13.40;80.00;;;;;;5047216;28;20040;-59
2022/05/07 00:15:16;;;;;;;3.03;1.48;;;13.40;79.50;;;;;;5017249;28;20049;-59
2022/05/07 00:20:27;;;;;;;2.20;0.40;;;13.50;79.30;;;;;;5037218;28;20071;-59
2022/05/07 00:22:54;;;;;;;1.90;0.60;;;13.50;79.40;;;;;;5046815;28;20027;-59
2022/05/07 00:25:19;;;;;;;1.13;0.77;;;13.50;79.60;;;;;;5039496;28;20036;-59
2022/05/07 00:27:45;;;;;;;2.67;0.55;;;13.60;79.70;;;;;;5020248;28;20129;-59
2022/05/07 00:30:11;;;;;;;0.85;0.40;;;13.60;79.50;;;;;;5046966;28;20029;-59
2022/05/07 00:32:37;;;;;;;0.50;0.50;;;13.60;79.50;;;;;;5040484;28;20370;-59
2022/05/07 00:35:03;;;;;;;0.68;0.60;;;13.50;79.80;;;;;;5046744;28;20469;-58
2022/05/07 00:37:29;;;;;;;3.03;0.65;;;13.50;80.80;;;;;;5040751;28;20423;-58
2022/05/07 00:39:54;;;;;;;1.10;0.50;;;13.50;81.80;;;;;;5040832;28;20056;-58
2022/05/07 00:42:20;;;;;;;1.88;0.60;;;13.50;82.90;;;;;;5042062;28;20029;-58
2022/05/07 00:44:46;;;;;;;1.17;0.65;;;13.40;83.50;;;;;;5038040;28;20028;-58
2022/05/07 00:47:15;;;;;;;3.13;0.88;;;13.40;82.40;;;;;;5046496;28;20068;-58
2022/05/07 00:49:53;;;;;;;2.58;0.52;;;13.30;83.20;;;;;;5040915;28;20128;-59
2022/05/07 00:52:19;;;;;;;2.30;0.45;;;13.30;83.60;;;;;;5039806;28;20124;-59
2022/05/07 00:54:46;;;;;;;2.53;1.00;;;13.30;83.50;;;;;;5040242;28;20128;-60
2022/05/07 00:57:13;;;;;;;1.38;0.52;;;13.30;83.40;;;;;;5045917;28;20041;-60
2022/05/07 00:59:39;;;;;;;0.98;0.40;;;13.20;82.70;;;;;;5030435;28;20055;-59
2022/05/07 01:02:05;;;;;;;0.70;0.40;;;13.20;83.10;;;;;;5039093;28;20544;-59
2022/05/07 01:04:30;;;;;;;0.93;0.50;;;13.20;83.10;;;;;;5041449;28;20048;-59
2022/05/07 01:06:57;;;;;;;0.50;0.50;;;13.20;83.40;;;;;;5044584;28;20067;-60
2022/05/07 01:09:23;;;;;;;0.98;0.43;;;13.10;83.80;;;;;;5036503;28;20128;-60
2022/05/07 01:11:51;;;;;;;2.13;0.50;;;13.10;85.10;;;;;;5037514;28;20533;-59
2022/05/07 01:14:16;;;;;;;2.72;0.60;;;13.00;85.00;;;;;;5027633;28;20150;-60
2022/05/07 01:16:42;;;;;;;1.25;0.50;;;13.00;85.20;;;;;;5043406;28;20472;-59
2022/05/07 01:19:08;;;;;;;0.80;0.50;;;12.90;85.40;;;;;;5038439;28;20037;-60
2022/05/07 01:21:33;;;;;;;4.57;0.55;;;12.80;86.00;;;;;;5037994;28;20112;-59
2022/05/07 01:24:02;;;;;;;0.85;0.50;;;12.70;86.60;;;;;;5033374;28;20037;-59
2022/05/07 01:26:28;;;;;;;0.80;0.63;;;12.60;87.00;;;;;;5038428;28;20473;-60
2022/05/07 01:29:03;;;;;;;1.95;0.60;;;12.50;87.60;;;;;;5030384;28;20111;-60
2022/05/07 01:31:29;;;;;;;1.25;0.50;;;12.30;88.00;;;;;;5044844;28;20033;-59
2022/05/07 01:33:55;;;;;;;1.50;0.70;;;12.20;88.30;;;;;;5018909;28;20029;-59
2022/05/07 01:36:21;;;;;;;1.67;0.60;;;12.20;88.60;;;;;;5044491;28;20039;-59
2022/05/07 01:38:48;;;;;;;0.75;0.45;;;12.10;88.40;;;;;;5031823;28;20025;-59
2022/05/07 01:41:14;;;;;;;1.15;0.70;;;12.00;88.80;;;;;;5036248;28;20033;-59
2022/05/07 01:43:40;;;;;;;1.60;0.70;;;12.00;88.50;;;;;;5039670;28;20037;-59
2022/05/07 01:48:09;;;;;;;3.05;0.70;;;12.10;88.40;;;;;;5037897;28;20382;-59
2022/05/07 01:48:54;;;;;;;2.03;0.55;;;12.10;88.40;;;;;;5027541;28;20120;-59
2022/05/07 01:51:20;;;;;;;0.93;0.73;;;12.10;87.90;;;;;;5046622;28;20079;-59
2022/05/07 01:53:46;;;;;;;1.85;0.63;;;12.10;88.00;;;;;;5040246;28;20032;-60
2022/05/07 01:56:12;;;;;;;3.10;0.80;;;12.20;88.20;;;;;;5038632;28;20060;-58
2022/05/07 01:58:38;;;;;;;2.53;0.90;;;12.20;88.20;;;;;;5035403;28;20063;-60
2022/05/07 02:01:04;;;;;;;2.00;0.63;;;12.30;88.10;;;;;;5037140;28;20037;-60
2022/05/07 02:03:30;;;;;;;1.15;0.50;;;12.30;87.20;;;;;;5038164;28;20078;-60
2022/05/07 02:05:56;;;;;;;2.17;0.70;;;12.20;86.90;;;;;;5039147;28;20040;-60
2022/05/07 02:08:22;;;;;;;1.15;0.60;;;12.10;87.90;;;;;;5042609;28;20037;-59
2022/05/07 02:10:47;;;;;;;0.73;0.55;;;12.10;88.20;;;;;;5040017;28;20056;-60
2022/05/07 02:13:13;;;;;;;2.95;0.82;;;12.00;88.20;;;;;;5033649;28;20017;-58
2022/05/07 02:15:39;;;;;;;1.60;0.60;;;12.00;88.50;;;;;;5039439;28;20108;-58
2022/05/07 02:18:04;;;;;;;2.83;1.00;;;12.00;89.10;;;;;;5043898;28;20056;-59
2022/05/07 02:20:30;;;;;;;1.13;0.50;;;11.90;89.30;;;;;;5032364;28;20030;-60
2022/05/07 02:22:57;;;;;;;3.92;0.95;;;11.90;89.90;;;;;;5042756;28;20033;-57
2022/05/07 02:25:23;;;;;;;1.85;0.60;;;11.90;90.00;;;;;;5040388;28;20163;-59
2022/05/07 02:27:49;;;;;;;1.98;0.70;;;11.90;90.10;;;;;;5036748;28;20598;-60
2022/05/07 02:30:19;;;;;;;0.60;0.60;;;11.90;90.00;;;;;;5039964;28;20033;-59
2022/05/07 02:32:47;;;;;;;1.02;0.55;;;11.90;89.70;;;;;;5021692;28;20030;-59
2022/05/07 02:35:13;;;;;;;1.65;0.70;;;11.80;90.00;;;;;;5038640;28;20025;-58
2022/05/07 02:37:39;;;;;;;3.72;0.70;;;11.80;90.20;;;;;;5038584;28;20021;-59
2022/05/07 02:40:05;;;;;;;2.30;0.77;;;11.80;90.90;;;;;;5035979;28;20111;-59
2022/05/07 02:42:33;;;;;;;2.28;1.20;;;11.80;91.10;;;;;;5044137;28;20087;-59
2022/05/07 02:45:01;;;;;;;1.75;0.80;;;11.90;91.20;;;;;;5034373;28;20084;-59
2022/05/07 02:47:27;;;;;;;0.93;0.65;;;11.90;91.40;;;;;;5037520;28;20051;-59
2022/05/07 02:49:52;;;;;;;4.15;1.20;;;11.90;91.30;;;;;;5037216;28;20180;-60
2022/05/07 02:52:18;;;;;;;1.95;0.80;;;11.90;91.70;;;;;;5044862;28;20480;-58
2022/05/07 02:54:44;;;;;;;1.13;0.90;;;12.00;91.40;;;;;;5039104;28;20098;-58
2022/05/07 02:57:09;;;;;;;0.80;0.77;;;12.10;91.20;;;;;;5031388;28;20033;-59
2022/05/07 02:59:38;;;;;;;1.50;0.88;;;12.10;90.90;;;;;;5038747;28;20469;-60
2022/05/07 03:02:04;;;;;;;1.77;0.65;;;12.10;90.90;;;;;;5043072;28;20055;-58
2022/05/07 03:04:30;;;;;;;1.75;0.75;;;12.10;91.10;;;;;;5031512;28;20064;-58
2022/05/07 03:06:56;;;;;;;4.38;1.02;;;12.10;91.10;;;;;;5032928;28;20120;-59
2022/05/07 03:09:22;;;;;;;2.60;0.90;;;12.10;91.10;;;;;;5042645;28;20078;-59
2022/05/07 03:11:47;;;;;;;5.10;1.10;;;12.10;90.90;;;;;;5038726;28;20031;-59
2022/05/07 03:14:13;;;;;;;4.72;1.23;;;12.20;90.90;;;;;;5022372;28;20032;-60
2022/05/07 03:16:39;;;;;;;1.20;0.93;;;12.30;90.00;;;;;;5037287;28;20029;-59
2022/05/07 03:19:06;;;;;;;3.35;1.40;;;12.50;89.60;;;;;;5042819;28;20044;-59
2022/05/07 03:21:32;;;;;;;2.25;1.00;;;12.60;88.70;;;;;;5020442;28;20052;-59
2022/05/07 03:23:57;;;;;;;1.05;0.88;;;12.60;88.80;;;;;;5034062;28;20392;-61
2022/05/07 03:26:23;;;;;;;2.30;1.10;;;12.70;89.10;;;;;;5037242;28;20132;-58
2022/05/07 03:28:49;;;;;;;2.25;1.10;;;12.70;89.20;;;;;;5034883;28;20893;-60
2022/05/07 03:31:15;;;;;;;1.00;0.85;;;12.70;88.50;;;;;;5037672;28;20018;-60
2022/05/07 03:33:41;;;;;;;1.50;1.00;;;12.80;88.10;;;;;;5027668;28;20037;-60
2022/05/07 03:36:06;;;;;;;1.92;1.00;;;12.80;88.40;;;;;;5036063;28;20034;-60
2022/05/07 03:38:32;;;;;;;3.65;0.85;;;12.90;88.60;;;;;;5038621;28;20033;-60
2022/05/07 03:40:58;;;;;;;1.92;1.20;;;12.90;87.70;;;;;;5038504;28;20042;-60
2022/05/07 03:43:24;;;;;;;1.58;0.90;;;13.00;88.00;;;;;;5050238;22;20119;-59
2022/05/07 03:45:50;;;;;;;1.73;0.90;;;12.90;88.40;;;;;;5022732;28;20120;-59
2022/05/07 03:48:16;;;;;;;11.70;1.55;;;13.00;88.40;;;;;;5018104;28;20133;-59
2022/05/07 03:50:42;;;;;;;3.40;0.95;;;13.00;88.80;;;;;;5020338;28;20552;-60
2022/05/07 03:55:51;;;;;;;1.90;1.27;;;12.80;89.60;;;;;;5014010;28;20095;-61
2022/05/07 03:58:17;;;;;;;1.98;0.90;;;12.80;89.90;;;;;;5020094;28;20116;-59
2022/05/07 04:00:46;;;;;;;1.15;0.90;;;12.70;90.10;;;;;;5020903;28;20103;-59
2022/05/07 04:03:12;;;;;;;3.85;0.98;;;12.70;90.30;;;;;;5022263;28;20373;-58
2022/05/07 04:05:39;;;;;;;1.25;0.90;;;12.70;90.40;;;;;;5021493;28;20481;-59
2022/05/07 04:08:05;;;;;;;2.22;1.20;;;12.60;90.50;;;;;;5026451;28;20065;-58
2022/05/07 04:10:32;;;;;;;2.63;1.10;;;12.60;90.70;;;;;;5020621;28;20055;-59
2022/05/07 04:12:57;;;;;;;1.85;1.10;;;12.60;90.70;;;;;;5018874;28;20107;-59
2022/05/07 04:15:23;;;;;;;0.93;0.90;;;12.60;90.40;;;;;;5025855;28;20485;-59
2022/05/07 04:17:49;;;;;;;1.45;0.88;;;12.60;90.40;;;;;;5021444;28;20021;-58
2022/05/07 04:20:16;;;;;;;1.42;1.05;;;12.60;90.40;;;;;;5012541;28;20485;-59
2022/05/07 04:22:42;;;;;;;3.65;1.58;;;12.60;90.30;;;;;;5010575;28;20022;-59
2022/05/07 04:25:09;;;;;;;3.20;0.90;;;12.60;90.30;;;;;;5019907;28;20029;-59
2022/05/07 04:27:35;;;;;;;4.00;1.25;;;12.60;90.30;;;;;;5013858;28;20060;-59
2022/05/07 04:30:01;;;;;;;1.38;0.98;;;12.60;90.60;;;;;;5017315;28;20034;-59
2022/05/07 04:32:27;;;;;;;1.00;0.90;;;12.60;90.40;;;;;;5023753;28;20453;-58
2022/05/07 04:34:57;;;;;;;5.20;1.10;;;12.60;90.50;;;;;;5015537;28;20091;-59
2022/05/07 04:37:24;;;;;;;1.33;0.90;;;12.60;90.90;;;;;;5023244;28;20040;-59
2022/05/07 04:39:50;;;;;;;6.53;0.93;;;12.70;90.50;;;;;;5030565;28;20516;-59
2022/05/07 04:42:15;;;;;;;3.20;1.63;;;12.70;90.30;;;;;;4987210;28;20034;-60
2022/05/07 04:44:41;;;;;;;1.95;1.30;;;12.60;90.60;;;;;;5020517;28;20036;-60
2022/05/07 04:47:07;;;;;;;3.05;1.40;;;12.60;90.60;;;;;;5015776;28;20901;-59
2022/05/07 04:49:33;;;;;;;2.35;1.17;;;12.60;90.40;;;;;;5024875;28;20094;-59
2022/05/07 04:51:59;;;;;;;4.93;1.05;;;12.60;90.30;;;;;;5020661;28;20037;-59
2022/05/07 04:54:25;;;;;;;3.20;1.42;;;12.60;90.20;;;;;;5020184;28;20038;-59
2022/05/07 04:56:52;;;;;;;7.13;1.30;;;12.60;90.20;;;;;;5010284;28;20041;-59
2022/05/07 04:59:19;;;;;;;2.33;1.08;;;12.50;90.40;;;;;;5005180;28;20041;-59
2022/05/07 05:01:45;;;;;;;1.98;1.10;;;12.50;90.50;;;;;;5022177;28;20025;-59
2022/05/07 05:04:11;;;;;;;2.67;1.10;;;12.50;90.70;;;;;;5020726;28;20038;-59
2022/05/07 05:06:38;;;;;;;3.97;1.42;;;12.50;90.80;;;;;;5022713;28;20488;-59
2022/05/07 05:09:05;;;;;;;1.13;1.02;;;12.50;90.70;;;;;;5022390;28;20068;-59
2022/05/07 05:11:31;;;;;;;3.72;1.10;;;12.50;90.50;;;;;;5022123;28;20022;-57
2022/05/07 05:13:57;;;;;;;1.63;1.05;;;12.50;90.40;;;;;;5011269;28;20377;-59
2022/05/07 05:16:23;;;;;;;3.13;1.60;;;12.60;90.30;;;;;;5020417;28;20112;-58
2022/05/07 05:18:49;;;;;;;1.42;1.05;;;12.70;90.40;;;;;;5023344;28;20509;-60
2022/05/07 05:21:15;;;;;;;2.40;1.27;;;12.70;90.30;;;;;;5015078;28;20072;-58
2022/05/07 05:23:41;;;;;;;3.13;1.20;;;12.70;90.30;;;;;;5015653;28;20030;-59
2022/05/07 05:26:07;;;;;;;1.90;1.42;;;12.60;90.50;;;;;;5013390;28;20385;-59
2022/05/07 05:28:33;;;;;;;5.35;1.35;;;12.60;90.60;;;;;;5028039;28;20040;-58
2022/05/07 05:30:59;;;;;;;1.20;1.00;;;12.50;90.70;;;;;;5014449;28;20021;-58
2022/05/07 05:33:25;;;;;;;3.72;1.15;;;12.40;90.70;;;;;;5007467;28;20049;-58
2022/05/07 05:35:51;;;;;;;3.85;1.15;;;12.40;90.70;;;;;;5020699;28;20033;-59
2022/05/07 05:38:17;;;;;;;2.58;1.17;;;12.40;90.60;;;;;;5020868;28;20488;-59
2022/05/07 05:40:43;;;;;;;5.53;1.60;;;12.40;90.60;;;;;;5022000;28;20165;-59
2022/05/07 05:43:09;;;;;;;3.92;1.23;;;12.50;90.60;;;;;;5029452;28;20068;-58
2022/05/07 05:45:35;;;;;;;5.53;1.60;;;12.50;90.50;;;;;;5029921;28;20386;-59
2022/05/07 05:48:02;;;;;;;2.95;1.40;;;12.60;90.40;;;;;;5021569;28;20545;-59
2022/05/07 05:50:31;;;;;;;4.60;1.42;;;12.50;90.30;;;;;;5020653;28;20068;-59
2022/05/07 05:52:57;;;;;;;2.80;1.50;;;12.60;90.30;;;;;;5003703;28;20030;-58
2022/05/07 05:55:23;;;;;;;3.33;1.73;;;12.70;90.20;;;;;;5023990;28;20052;-59
2022/05/07 05:57:49;;;;;;;2.78;1.65;;;12.80;89.70;;;;;;5018343;28;20385;-59
2022/05/07 06:00:16;;;;;;;3.42;2.20;;;12.90;89.40;;;;;;5012800;28;20033;-59
2022/05/07 06:02:44;;;;;;;5.75;2.10;;;13.00;88.70;;;;;;5011458;28;20029;-59
2022/05/07 06:05:10;;;;;;;4.38;2.00;;;13.00;88.20;;;;;;5018577;28;20037;-59
2022/05/07 06:07:36;;;;;;;4.32;1.92;;;13.10;88.40;;;;;;5022049;28;20037;-59
2022/05/07 06:10:03;;;;;;;16.35;3.75;;;13.10;88.00;;;;;;5014936;28;20375;-58
2022/05/07 06:12:28;;;;;;;5.93;1.27;;;13.20;88.00;;;;;;5006661;28;20025;-59
2022/05/07 06:14:55;;;;;;;3.92;1.70;;;13.30;87.70;;;;;;5011903;28;20381;-58
2022/05/07 06:17:21;;;;;;;2.97;2.00;;;13.30;87.50;;;;;;5008191;28;20367;-58
2022/05/07 06:19:47;;;;;;;2.20;1.50;;;13.20;87.60;;;;;;5012658;28;20044;-59
2022/05/07 06:22:13;;;;;;;5.22;1.30;;;13.20;87.60;;;;;;5023100;28;20026;-58
2022/05/07 06:27:28;;;;;;;3.97;1.90;;;13.20;88.50;;;;;;5003984;28;20142;-58
2022/05/07 06:29:56;;;;;;;4.45;1.75;;;13.10;88.90;;;;;;5013688;28;20409;-59
2022/05/07 06:32:22;;;;;;;1.92;1.50;;;13.10;89.20;;;;;;5015226;28;20501;-59
2022/05/07 06:34:48;;;;;;;3.28;1.70;;;13.00;89.40;;;;;;5006629;28;20053;-59
2022/05/07 06:37:14;;;;;;;5.28;2.03;;;13.00;89.90;;;;;;5012494;28;20018;-58
2022/05/07 06:39:40;;;;;;;8.95;2.13;;;13.00;90.20;;;;;;5009277;28;20030;-58
2022/05/07 06:42:07;;;;;;;4.22;2.22;;;13.00;90.30;;;;;;5008265;28;20084;-60
2022/05/07 06:44:33;;;;;;;3.38;1.98;;;13.10;90.40;;;;;;5008157;28;20117;-59
2022/05/07 06:46:59;;;;;;;5.25;2.13;;;13.10;90.60;;;;;;5011332;28;20454;-59
2022/05/07 06:49:25;;;;;;;4.32;2.08;;;13.20;90.60;;;;;;5010703;28;20038;-59
2022/05/07 06:51:51;;;;;;;3.53;2.83;;;13.30;90.40;;;;;;5004897;28;20036;-59
2022/05/07 06:54:18;;;;;;;4.07;2.30;;;13.40;90.10;;;;;;5010340;28;20041;-59
2022/05/07 06:56:43;;;;;;;4.20;2.53;;;13.40;90.10;;;;;;5011369;28;20050;-58
2022/05/07 06:59:12;;;;;;;5.80;2.50;;;13.40;90.00;;;;;;5017549;28;20438;-59
2022/05/07 07:01:38;;;;;;;4.70;3.00;;;13.50;90.00;;;;;;5008932;28;20058;-59
2022/05/07 07:04:04;;;;;;;4.60;2.90;;;13.50;90.10;;;;;;5015594;28;20034;-58
2022/05/07 07:06:30;;;;;;;8.45;4.55;;;13.60;90.20;;;;;;5008521;28;20026;-59
2022/05/07 07:08:56;;;;;;;7.53;3.80;;;13.70;90.20;;;;;;4998828;28;20041;-59
2022/05/07 07:11:22;;;;;;;8.40;3.25;;;13.70;90.10;;;;;;5006555;28;20034;-58
2022/05/07 07:13:49;;;;;;;4.82;2.83;;;13.80;89.70;;;;;;5008696;28;20037;-59
2022/05/07 07:16:15;;;;;;;3.28;2.83;;;14.00;89.00;;;;;;5001609;28;20030;-58
2022/05/07 07:18:41;;;;;;;9.93;3.40;;;14.30;88.40;;;;;;5012942;28;20072;-59
2022/05/07 07:21:06;;;;;;;4.95;3.20;;;14.60;86.80;;;;;;5005483;28;20027;-59
2022/05/07 07:23:32;;;;;;;7.50;3.72;;;15.00;84.70;;;;;;5009800;28;20517;-59
2022/05/07 07:25:58;;;;;;;4.85;2.50;;;15.30;83.00;;;;;;5007699;28;20038;-60
2022/05/07 07:28:24;;;;;;;4.55;2.65;;;15.40;81.30;;;;;;5013353;28;20044;-59
2022/05/07 07:30:51;;;;;;;3.38;2.20;;;15.50;81.50;;;;;;5008139;28;20049;-59
2022/05/07 07:33:17;;;;;;;5.90;2.65;;;15.80;80.80;;;;;;5009768;28;20057;-58
2022/05/07 07:35:43;;;;;;;4.55;2.80;;;15.90;79.90;;;;;;5014578;28;20536;-58
2022/05/07 07:38:10;;;;;;;2.92;2.53;;;16.10;78.80;;;;;;5023932;28;20033;-58
2022/05/07 07:40:36;;;;;;;4.70;2.28;;;16.20;77.60;;;;;;5021755;28;20037;-57
2022/05/07 07:43:02;;;;;;;2.63;2.28;;;16.10;77.20;;;;;;5011830;28;20046;-58
2022/05/07 07:48:13;;;;;;;3.13;2.15;;;16.20;77.10;;;;;;5011217;28;20045;-58
2022/05/07 07:50:38;;;;;;;4.40;2.47;;;16.30;77.30;;;;;;5015387;28;20029;-58
2022/05/07 07:53:10;;;;;;;3.67;2.17;;;16.50;76.80;;;;;;4996669;28;20094;-58
2022/05/07 07:55:36;;;;;;;3.58;2.13;;;16.70;75.50;;;;;;4992230;28;20310;-59
2022/05/07 07:58:07;;;;;;;3.88;1.70;;;16.70;75.90;;;;;;4995728;28;20033;-58
2022/05/07 08:00:35;;;;;;;2.70;1.70;;;16.70;74.90;;;;;;5005242;28;20026;-59
2022/05/07 08:03:11;;;;;;;3.78;2.42;;;16.50;74.80;;;;;;5010337;28;20080;-59
2022/05/07 08:05:38;;;;;;;2.10;1.50;;;16.20;75.50;;;;;;4998639;28;20397;-60
2022/05/07 08:13:35;;;;;;;3.97;1.80;;;16.40;76.10;;;;;;5010950;28;20556;-58
2022/05/07 08:16:05;;;;;;;4.72;2.00;;;16.40;76.40;;;;;;5012498;28;20508;-59
2022/05/07 08:18:31;;;;;;;5.18;2.28;;;16.50;75.40;;;;;;5014079;28;20033;-57
2022/05/07 08:20:57;;;;;;;3.00;2.08;;;16.70;75.10;;;;;;5013043;28;20026;-58
2022/05/07 08:23:25;;;;;;;3.15;1.60;;;16.90;74.00;;;;;;5017371;28;20041;-59
2022/05/07 08:25:51;;;;;;;5.15;1.70;;;17.20;72.40;;;;;;5009309;28;20433;-59
2022/05/07 08:28:17;;;;;;;2.50;1.83;;;17.20;72.50;;;;;;5018486;28;20034;-63
2022/05/07 08:30:43;;;;;;;2.95;1.58;;;17.40;71.80;;;;;;4997463;28;20394;-60
2022/05/07 08:33:10;;;;;;;3.60;1.30;;;17.60;70.80;;;;;;5000111;28;20100;-60
2022/05/07 08:35:35;;;;;;;2.95;1.30;;;17.80;69.70;;;;;;5000596;28;20031;-59
2022/05/07 08:38:01;;;;;;;4.93;1.67;;;18.10;68.20;;;;;;5012389;28;20471;-58
2022/05/07 08:40:28;;;;;;;3.72;1.30;;;18.00;67.40;;;;;;5015655;28;20046;-60
2022/05/07 08:42:57;;;;;;;1.35;1.10;;;17.90;68.90;;;;;;5010824;28;20115;-60
2022/05/07 08:45:23;;;;;;;4.63;1.92;;;17.70;68.50;;;;;;5014103;28;20077;-59
2022/05/07 08:47:53;;;;;;;1.95;1.42;;;17.20;69.00;;;;;;5018329;28;20033;-60
2022/05/07 08:50:20;;;;;;;3.08;1.10;;;16.90;70.70;;;;;;5007608;28;20065;-60
2022/05/07 08:52:46;;;;;;;6.18;1.13;;;16.90;71.50;;;;;;5008632;28;20037;-60
2022/05/07 08:55:14;;;;;;;1.63;1.20;;;16.90;71.90;;;;;;5010527;28;20036;-59
2022/05/07 08:57:42;;;;;;;2.10;0.93;;;17.10;71.10;;;;;;5013425;28;20437;-59
2022/05/07 09:00:10;;;;;;;2.47;1.00;;;17.40;70.50;;;;;;5011454;28;20058;-59
2022/05/07 09:02:41;;;;;;;3.42;1.08;;;17.70;68.90;;;;;;5015446;28;20084;-59
2022/05/07 09:05:11;;;;;;;3.15;1.20;;;17.80;68.00;;;;;;5008293;28;20062;-59
2022/05/07 09:07:40;;;;;;;2.40;0.85;;;17.80;67.60;;;;;;5013354;28;20062;-59
2022/05/07 09:10:11;;;;;;;0.93;0.90;;;18.00;66.30;;;;;;5010127;28;20048;-59
2022/05/07 09:12:37;;;;;;;1.20;0.75;;;18.20;65.50;;;;;;5011117;28;20029;-59
2022/05/07 09:15:05;;;;;;;4.72;1.20;;;18.40;65.00;;;;;;5000899;28;20044;-64
2022/05/07 09:17:31;;;;;;;2.05;0.90;;;18.80;64.40;;;;;;5001319;28;20065;-59
2022/05/07 09:19:57;;;;;;;1.67;0.85;;;19.10;62.90;;;;;;4998621;28;20030;-58
2022/05/07 09:22:25;;;;;;;5.88;1.02;;;19.10;63.00;;;;;;5001654;28;20030;-58
2022/05/07 09:24:55;;;;;;;2.75;0.85;;;19.20;59.30;;;;;;4999086;28;20491;-58
2022/05/07 09:27:22;;;;;;;0.98;0.80;;;19.00;61.00;;;;;;5000142;28;20030;-59
2022/05/07 09:30:02;;;;;;;1.95;0.70;;;19.00;61.40;;;;;;5007929;28;20034;-58
2022/05/07 09:32:38;;;;;;;2.20;0.73;;;18.90;62.00;;;;;;5019745;28;20057;-57
2022/05/07 09:38:01;;;;;;;1.17;0.80;;;18.70;62.40;;;;;;5013297;28;20045;-58
2022/05/07 09:40:31;;;;;;;2.13;0.80;;;18.60;61.60;;;;;;5014974;28;20041;-59
2022/05/07 09:42:59;;;;;;;3.17;1.13;;;18.50;63.40;;;;;;5018630;23;20096;-59
2022/05/07 09:45:27;;;;;;;3.00;1.27;;;18.50;64.30;;;;;;5011372;28;20091;-58
2022/05/07 09:47:56;;;;;;;1.40;0.80;;;18.60;64.10;;;;;;5006965;28;20148;-58
2022/05/07 09:58:41;;;;;;;0.47;0.47;;;19.20;59.60;;;;;;5014360;28;20501;-59
2022/05/07 10:01:28;;;;;;;7.28;0.98;;;19.10;60.20;;;;;;5023363;28;20041;-57
2022/05/07 10:04:21;;;;;;;1.85;0.80;;;18.90;61.10;;;;;;5015934;28;20057;-58
2022/05/07 10:07:06;;;;;;;2.05;0.60;;;18.80;62.30;;;;;;5008909;28;20034;-59
2022/05/07 10:10:02;;;;;;;0.70;0.57;;;18.90;61.00;;;;;;4995999;28;20029;-59
2022/05/07 10:12:28;;;;;;;4.18;0.73;;;19.30;59.60;;;;;;5013842;28;20044;-58
2022/05/07 10:15:12;;;;;;;0.85;0.52;;;19.80;56.60;;;;;;5010927;28;20029;-59
2022/05/07 10:17:37;;;;;;;0.70;0.47;;;20.00;55.80;;;;;;5010981;28;20501;-59
2022/05/07 10:20:09;;;;;;;1.40;0.60;;;20.10;55.70;;;;;;5009931;28;20050;-59
2022/05/07 10:22:36;;;;;;;2.88;0.60;;;20.50;55.60;;;;;;5014675;28;20037;-59
2022/05/07 10:25:06;;;;;;;1.15;0.50;;;21.00;54.80;;;;;;5008514;28;20030;-59
2022/05/07 10:27:34;;;;;;;0.70;0.70;;;20.90;54.10;;;;;;5005289;28;20048;-59
2022/05/07 10:30:09;;;;;;;1.63;0.80;;;20.70;53.90;;;;;;5013070;28;20045;-58
2022/05/07 10:32:58;;;;;;;0.40;0.40;;;19.90;56.30;;;;;;5012467;28;20026;-59
2022/05/07 10:35:51;;;;;;;1.17;0.88;;;19.40;57.20;;;;;;5019980;28;20036;-58
2022/05/07 10:38:24;;;;;;;1.30;0.90;;;18.80;59.20;;;;;;5020330;28;20049;-59
2022/05/07 10:41:02;;;;;;;3.65;1.63;;;18.30;60.60;;;;;;5022257;28;20484;-59
2022/05/07 10:43:38;;;;;;;2.60;0.90;;;18.00;62.70;;;;;;5001983;28;20130;-60
2022/05/07 10:46:07;;;;;;;2.70;0.95;;;17.70;65.10;;;;;;5007557;28;20034;-59
2022/05/07 10:48:50;;;;;;;2.00;1.02;;;17.60;66.70;;;;;;5005443;28;20034;-59
2022/05/07 10:51:27;;;;;;;1.60;0.85;;;17.40;68.00;;;;;;5008071;28;20033;-59
2022/05/07 10:53:59;;;;;;;2.28;0.95;;;17.20;67.30;;;;;;4999535;28;20022;-60
2022/05/07 10:56:25;;;;;;;6.55;1.20;;;17.10;68.70;;;;;;5010662;28;20061;-60
2022/05/07 10:58:52;;;;;;;3.65;1.17;;;17.10;70.20;;;;;;5016293;28;20037;-64
2022/05/07 11:01:21;;;;;;;3.10;1.38;;;17.10;70.70;;;;;;5012092;28;20029;-59
2022/05/07 11:03:47;;;;;;;2.05;0.90;;;17.20;70.80;;;;;;5010596;28;20029;-59
2022/05/07 11:06:13;;;;;;;1.90;1.50;;;17.10;70.60;;;;;;5009697;28;20496;-60
2022/05/07 11:08:49;;;;;;;1.42;1.05;;;17.10;68.90;;;;;;5010052;28;20034;-58
2022/05/07 11:11:16;;;;;;;3.08;1.77;;;17.10;67.30;;;;;;5017561;28;20055;-59
2022/05/07 11:13:47;;;;;;;3.05;1.27;;;17.00;69.20;;;;;;5006864;28;20030;-60
2022/05/07 11:16:16;;;;;;;2.35;1.20;;;17.10;69.80;;;;;;5009727;28;20037;-60
2022/05/07 11:18:45;;;;;;;4.78;1.52;;;17.00;69.70;;;;;;5017157;28;20022;-59
2022/05/07 11:21:11;;;;;;;4.90;1.20;;;17.00;68.70;;;;;;5010845;28;20026;-60
2022/05/07 11:23:39;;;;;;;2.53;1.02;;;17.00;67.10;;;;;;5018515;28;20541;-60
2022/05/07 11:26:13;;;;;;;1.75;1.05;;;17.00;67.70;;;;;;5020528;28;20030;-60
2022/05/07 11:28:40;;;;;;;2.00;1.20;;;17.10;68.90;;;;;;5014550;28;20063;-59
2022/05/07 11:31:06;;;;;;;3.70;1.15;;;17.20;67.90;;;;;;5018895;28;20079;-58
2022/05/07 11:33:32;;;;;;;2.33;1.23;;;17.20;67.80;;;;;;5010397;28;20109;-59
2022/05/07 11:36:06;;;;;;;2.55;1.10;;;17.20;67.60;;;;;;4997897;28;20129;-59
2022/05/07 11:38:34;;;;;;;2.00;1.20;;;17.30;68.30;;;;;;4999046;28;20034;-59
2022/05/07 11:41:10;;;;;;;2.75;1.40;;;17.30;68.10;;;;;;4999380;28;20029;-60
2022/05/07 11:46:20;;;;;;;1.30;1.02;;;17.40;67.00;;;;;;5015034;28;20088;-59
2022/05/07 11:48:46;;;;;;;1.48;1.05;;;17.50;66.90;;;;;;5002962;28;20042;-58
2022/05/07 11:51:23;;;;;;;1.25;1.00;;;17.60;66.80;;;;;;5007212;28;20032;-59
2022/05/07 11:53:49;;;;;;;1.25;0.98;;;17.60;66.70;;;;;;5006561;28;20557;-59
2022/05/07 11:56:14;;;;;;;2.47;1.35;;;17.60;66.30;;;;;;5006284;28;20124;-59
2022/05/07 11:58:49;;;;;;;3.28;1.35;;;17.60;67.20;;;;;;4995704;28;20029;-60
2022/05/07 12:01:21;;;;;;;2.42;1.67;;;17.60;67.90;;;;;;4996912;28;20032;-59
2022/05/07 12:03:49;;;;;;;2.63;1.38;;;17.60;68.60;;;;;;4996054;28;20493;-58
2022/05/07 12:06:30;;;;;;;2.70;1.48;;;17.60;68.30;;;;;;4999852;28;20437;-59
2022/05/07 12:08:56;;;;;;;1.30;1.20;;;17.70;68.60;;;;;;5000858;28;20022;-59
2022/05/07 12:11:22;;;;;;;2.55;1.52;;;17.70;69.60;;;;;;5002483;28;20034;-58
2022/05/07 12:13:49;;;;;;;2.65;1.40;;;17.60;69.20;;;;;;5001240;28;20104;-59
2022/05/07 12:18:59;;;;;;;2.88;1.40;;;17.70;70.50;;;;;;5002505;28;20036;-60
2022/05/07 12:29:49;;;;;;;1.23;0.70;;;17.70;66.80;;;;;;5011563;28;20049;-59
2022/05/07 12:32:23;;;;;;;1.80;1.02;;;18.10;64.50;;;;;;5017100;28;20026;-59
2022/05/07 12:34:49;;;;;;;1.50;0.90;;;18.40;62.80;;;;;;5014056;28;20034;-58
2022/05/07 12:37:15;;;;;;;1.20;0.80;;;18.80;62.20;;;;;;5004313;28;20389;-59
2022/05/07 12:39:42;;;;;;;1.73;1.10;;;19.00;61.00;;;;;;5017040;28;20040;-59
2022/05/07 12:42:10;;;;;;;1.15;0.70;;;19.20;59.40;;;;;;5005285;28;20033;-60
2022/05/07 12:44:36;;;;;;;0.90;0.73;;;19.30;58.40;;;;;;4999102;28;20041;-58
2022/05/07 12:47:03;;;;;;;3.00;1.30;;;19.40;58.40;;;;;;5001921;28;20037;-58
2022/05/07 12:49:29;;;;;;;1.48;0.77;;;19.60;58.30;;;;;;5001941;28;20369;-58
2022/05/07 12:51:55;;;;;;;0.93;0.70;;;19.80;58.30;;;;;;5005864;28;20029;-58
2022/05/07 12:54:21;;;;;;;1.58;0.50;;;20.20;58.00;;;;;;5018515;28;20033;-59
2022/05/07 12:56:48;;;;;;;0.50;0.50;;;20.70;56.60;;;;;;5022527;28;20033;-59
2022/05/07 12:59:14;;;;;;;2.05;0.70;;;21.00;55.60;;;;;;5017689;28;20036;-58
2022/05/07 13:01:39;;;;;;;1.08;0.60;;;21.60;55.20;;;;;;5020639;28;20456;-58
2022/05/07 13:04:05;;;;;;;1.50;0.70;;;22.70;53.30;;;;;;5023989;28;20025;-58
2022/05/07 13:06:31;;;;;;;2.65;1.48;;;24.00;50.00;;;;;;5016015;28;20362;-58
2022/05/07 13:09:00;;;;;;;1.65;0.80;;;24.90;47.00;;;;;;5026817;28;20445;-59
2022/05/07 13:11:26;;;;;;;1.80;1.27;;;24.10;46.60;;;;;;5015411;28;20037;-59
2022/05/07 13:13:52;;;;;;;2.05;1.23;;;23.40;47.70;;;;;;5013795;28;20500;-58
2022/05/07 13:16:18;;;;;;;2.45;1.17;;;22.40;50.50;;;;;;5012080;28;20029;-58
2022/05/07 13:18:44;;;;;;;1.45;1.20;;;21.60;50.80;;;;;;5019440;28;20022;-58
2022/05/07 13:21:11;;;;;;;1.33;1.00;;;20.80;53.10;;;;;;5023946;28;20041;-58
2022/05/07 13:23:37;;;;;;;1.75;1.35;;;20.20;55.00;;;;;;5023083;28;20045;-59
2022/05/07 13:26:03;;;;;;;1.30;1.20;;;19.70;56.90;;;;;;5022344;28;20037;-59
2022/05/07 13:28:29;;;;;;;2.55;1.33;;;19.30;58.20;;;;;;5017259;28;20547;-64
2022/05/07 13:30:58;;;;;;;2.55;1.30;;;19.00;61.40;;;;;;5018955;28;20049;-59